Time;durP1;ratioP1;P1;durP2;ratioP2;P2;SDS_P1;SDS_P2;PMS_P1;PMS_P2;Temp;Humidity;BMP_temperature;BMP_pressure;BME280_temperature;BME280_humidity;BME280_pressure;Samples;Min_cycle;Max_cycle;Signal;HPM_P1;HPM_P2
2023/09/22 00:02:03;;;;;;;12.57;6.88;;;;;;;;;;5087406;28;20052;-68
2023/09/22 00:04:30;;;;;;;23.98;6.82;;;;;;;;;;5085689;28;20417;-67
2023/09/22 00:06:57;;;;;;;20.42;5.90;;;;;;;;;;5081497;28;20126;-67
2023/09/22 00:09:25;;;;;;;30.80;5.95;;;;;;;;;;5060822;28;20507;-67
2023/09/22 00:11:52;;;;;;;13.70;5.82;;;;;;;;;;5082445;28;20067;-67
2023/09/22 00:14:20;;;;;;;23.20;6.57;;;;;;;;;;5085807;28;20340;-67
2023/09/22 00:16:47;;;;;;;20.83;6.43;;;;;;;;;;5086991;28;20059;-68
2023/09/22 00:19:15;;;;;;;18.98;6.57;;;;;;;;;;5087783;28;20071;-68
2023/09/22 00:21:43;;;;;;;21.58;6.55;;;;;;;;;;5089411;28;20060;-67
2023/09/22 00:24:10;;;;;;;20.30;7.15;;;;;;;;;;5080695;28;20044;-67
2023/09/22 00:26:37;;;;;;;18.73;7.00;;;;;;;;;;5091985;28;20083;-68
2023/09/22 00:29:04;;;;;;;15.95;7.15;;;;;;;;;;5083842;28;20388;-67
2023/09/22 00:31:31;;;;;;;12.55;6.78;;;;;;;;;;5085805;28;20045;-67
2023/09/22 00:33:59;;;;;;;16.92;6.45;;;;;;;;;;5086714;28;20048;-68
2023/09/22 00:36:27;;;;;;;19.90;6.60;;;;;;;;;;5088606;28;20051;-68
2023/09/22 00:38:54;;;;;;;12.68;6.63;;;;;;;;;;5078317;28;20047;-68
2023/09/22 00:41:22;;;;;;;11.20;6.55;;;;;;;;;;5084183;28;20062;-67
2023/09/22 00:43:49;;;;;;;12.90;6.85;;;;;;;;;;5088184;28;20067;-67
2023/09/22 00:46:18;;;;;;;14.40;6.75;;;;;;;;;;5083658;28;20040;-68
2023/09/22 00:48:45;;;;;;;12.30;6.22;;;;;;;;;;5080783;28;20048;-67
2023/09/22 00:51:14;;;;;;;14.63;6.78;;;;;;;;;;5083515;28;20077;-68
2023/09/22 00:53:43;;;;;;;15.10;7.40;;;;;;;;;;5082637;28;20109;-67
2023/09/22 00:56:10;;;;;;;16.60;6.82;;;;;;;;;;5082263;28;20048;-67
2023/09/22 00:58:38;;;;;;;16.48;7.30;;;;;;;;;;5083321;28;20067;-68
2023/09/22 01:01:05;;;;;;;17.00;7.13;;;;;;;;;;5089266;28;20071;-68
2023/09/22 01:03:32;;;;;;;15.98;6.13;;;;;;;;;;5084178;28;20044;-67
2023/09/22 01:05:59;;;;;;;15.25;6.50;;;;;;;;;;5083443;28;20040;-68
2023/09/22 01:08:27;;;;;;;10.68;5.70;;;;;;;;;;5084328;28;20051;-67
2023/09/22 01:10:56;;;;;;;12.35;5.97;;;;;;;;;;5092978;28;20070;-67
2023/09/22 01:13:23;;;;;;;15.40;6.03;;;;;;;;;;5089046;28;20044;-67
2023/09/22 01:15:50;;;;;;;13.20;6.10;;;;;;;;;;5089164;28;20487;-67
2023/09/22 01:18:17;;;;;;;17.60;5.50;;;;;;;;;;5084842;28;20056;-67
2023/09/22 01:20:45;;;;;;;13.00;5.80;;;;;;;;;;5090541;28;20051;-67
2023/09/22 01:23:14;;;;;;;24.33;4.72;;;;;;;;;;5087034;28;20499;-67
2023/09/22 01:25:45;;;;;;;14.65;5.13;;;;;;;;;;5101428;28;20044;-68
2023/09/22 01:28:14;;;;;;;12.60;5.93;;;;;;;;;;5086981;28;20388;-67
2023/09/22 01:30:42;;;;;;;10.73;5.50;;;;;;;;;;5078542;28;20082;-67
2023/09/22 01:33:09;;;;;;;20.30;5.55;;;;;;;;;;5089700;28;20044;-67
2023/09/22 01:35:37;;;;;;;11.52;5.38;;;;;;;;;;5081816;28;20049;-67
2023/09/22 01:38:11;;;;;;;10.35;4.28;;;;;;;;;;5085777;28;20044;-67
2023/09/22 01:40:40;;;;;;;9.75;5.32;;;;;;;;;;5090307;28;20079;-67
2023/09/22 01:43:07;;;;;;;12.95;4.95;;;;;;;;;;5088038;28;20071;-67
2023/09/22 01:45:35;;;;;;;9.77;5.50;;;;;;;;;;5086543;28;20060;-68
2023/09/22 01:48:02;;;;;;;15.45;6.03;;;;;;;;;;5090003;28;20043;-67
2023/09/22 01:50:30;;;;;;;17.70;5.57;;;;;;;;;;5088744;28;20052;-67
2023/09/22 01:52:57;;;;;;;8.45;4.60;;;;;;;;;;5073497;28;20052;-67
2023/09/22 01:55:24;;;;;;;10.10;5.07;;;;;;;;;;5090878;28;20052;-67
2023/09/22 01:57:53;;;;;;;11.55;5.47;;;;;;;;;;5083136;28;20402;-67
2023/09/22 02:00:20;;;;;;;11.10;5.07;;;;;;;;;;5092170;28;20131;-67
2023/09/22 02:02:47;;;;;;;11.90;5.78;;;;;;;;;;5084165;28;20407;-67
2023/09/22 02:05:15;;;;;;;13.45;5.70;;;;;;;;;;5088142;28;20043;-70
2023/09/22 02:07:43;;;;;;;13.93;5.30;;;;;;;;;;5070818;28;20048;-68
2023/09/22 02:10:12;;;;;;;11.30;5.80;;;;;;;;;;5090699;28;20113;-67
2023/09/22 02:12:40;;;;;;;13.60;5.93;;;;;;;;;;5088321;28;20040;-67
2023/09/22 02:15:10;;;;;;;13.07;5.72;;;;;;;;;;5090504;28;20047;-67
2023/09/22 02:17:38;;;;;;;9.77;5.93;;;;;;;;;;5094565;28;20082;-68
2023/09/22 02:20:17;;;;;;;13.13;5.72;;;;;;;;;;5098806;28;21192;-67
2023/09/22 02:22:45;;;;;;;12.55;5.35;;;;;;;;;;5095551;28;20054;-67
2023/09/22 02:25:13;;;;;;;11.32;5.88;;;;;;;;;;5090355;28;20037;-67
2023/09/22 02:27:40;;;;;;;17.25;6.28;;;;;;;;;;5082568;28;20128;-67
2023/09/22 02:30:10;;;;;;;27.55;6.03;;;;;;;;;;5082988;28;20051;-67
2023/09/22 02:32:38;;;;;;;50.05;5.30;;;;;;;;;;5091508;28;20199;-67
2023/09/22 02:35:05;;;;;;;64.90;4.72;;;;;;;;;;5088262;28;20415;-67
2023/09/22 02:37:32;;;;;;;76.63;5.57;;;;;;;;;;5094544;28;20048;-67
2023/09/22 02:40:00;;;;;;;22.20;5.20;;;;;;;;;;5090579;28;20051;-67
2023/09/22 02:42:28;;;;;;;12.07;5.80;;;;;;;;;;5097901;28;20047;-67
2023/09/22 02:44:55;;;;;;;10.93;5.28;;;;;;;;;;5092551;28;20087;-67
2023/09/22 02:47:23;;;;;;;13.90;5.32;;;;;;;;;;5099633;28;20058;-67
2023/09/22 02:49:51;;;;;;;9.65;4.95;;;;;;;;;;5090760;28;20051;-67
2023/09/22 02:52:18;;;;;;;13.10;5.85;;;;;;;;;;5088041;28;20384;-67
2023/09/22 02:54:45;;;;;;;12.15;5.57;;;;;;;;;;5088291;28;20056;-67
2023/09/22 02:57:12;;;;;;;10.65;5.78;;;;;;;;;;5093718;28;20054;-67
2023/09/22 02:59:40;;;;;;;11.73;6.07;;;;;;;;;;5090377;28;20052;-67
2023/09/22 03:02:07;;;;;;;11.30;5.53;;;;;;;;;;5077832;28;20062;-67
2023/09/22 03:04:36;;;;;;;10.52;5.47;;;;;;;;;;5089103;28;20166;-67
2023/09/22 03:07:03;;;;;;;13.10;6.38;;;;;;;;;;5093152;28;20178;-67
2023/09/22 03:09:30;;;;;;;17.08;5.70;;;;;;;;;;5091188;28;20053;-67
2023/09/22 03:11:58;;;;;;;16.25;5.10;;;;;;;;;;5072003;28;20133;-67
2023/09/22 03:14:25;;;;;;;10.40;5.30;;;;;;;;;;5093700;28;20059;-67
2023/09/22 03:16:53;;;;;;;9.68;5.10;;;;;;;;;;5087700;28;20349;-67
2023/09/22 03:19:20;;;;;;;19.20;5.00;;;;;;;;;;5086648;28;20051;-67
2023/09/22 03:21:48;;;;;;;12.82;4.65;;;;;;;;;;5098073;28;20070;-68
2023/09/22 03:24:16;;;;;;;9.20;4.32;;;;;;;;;;5091454;28;20369;-68
2023/09/22 03:26:43;;;;;;;7.30;3.83;;;;;;;;;;5082692;28;20067;-67
2023/09/22 03:29:10;;;;;;;7.40;3.65;;;;;;;;;;5082774;28;20055;-67
2023/09/22 03:31:38;;;;;;;5.65;3.30;;;;;;;;;;5080722;28;20041;-67
2023/09/22 03:34:06;;;;;;;6.93;3.35;;;;;;;;;;5084031;28;20047;-67
2023/09/22 03:36:35;;;;;;;4.35;2.92;;;;;;;;;;5069192;28;20048;-67
2023/09/22 03:39:08;;;;;;;4.82;2.90;;;;;;;;;;5092298;28;20651;-67
2023/09/22 03:41:35;;;;;;;6.20;2.95;;;;;;;;;;5083074;28;20141;-67
2023/09/22 03:44:02;;;;;;;5.05;3.22;;;;;;;;;;5084360;28;20044;-67
2023/09/22 03:46:29;;;;;;;5.68;2.85;;;;;;;;;;5089104;28;20083;-67
2023/09/22 03:48:57;;;;;;;6.85;3.40;;;;;;;;;;5086690;28;20510;-67
2023/09/22 03:51:24;;;;;;;4.72;2.80;;;;;;;;;;5093372;28;20070;-67
2023/09/22 03:53:52;;;;;;;5.13;3.40;;;;;;;;;;5084689;28;20719;-67
2023/09/22 03:56:20;;;;;;;5.53;3.45;;;;;;;;;;5091208;28;20044;-67
2023/09/22 03:58:48;;;;;;;6.45;3.50;;;;;;;;;;5092583;28;20533;-67
2023/09/22 04:01:16;;;;;;;6.25;3.28;;;;;;;;;;5089530;28;20459;-67
2023/09/22 04:03:43;;;;;;;7.00;4.07;;;;;;;;;;5074979;28;20055;-67
2023/09/22 04:06:10;;;;;;;5.60;3.63;;;;;;;;;;5065702;28;20132;-67
2023/09/22 04:08:37;;;;;;;7.65;4.10;;;;;;;;;;5075176;28;20052;-67
2023/09/22 04:11:05;;;;;;;8.93;4.22;;;;;;;;;;5068926;28;20066;-67
2023/09/22 04:13:34;;;;;;;8.52;5.43;;;;;;;;;;5082999;28;20110;-67
2023/09/22 04:16:01;;;;;;;9.50;5.15;;;;;;;;;;5085276;28;20055;-67
2023/09/22 04:18:30;;;;;;;12.70;5.95;;;;;;;;;;5086807;28;20515;-67
2023/09/22 04:20:57;;;;;;;13.45;6.25;;;;;;;;;;5086725;28;20109;-67
2023/09/22 04:23:25;;;;;;;11.50;6.43;;;;;;;;;;5088047;28;20100;-67
2023/09/22 04:25:54;;;;;;;16.02;7.38;;;;;;;;;;5091373;28;20055;-67
2023/09/22 04:28:23;;;;;;;12.13;6.22;;;;;;;;;;5089122;28;20059;-67
2023/09/22 04:30:53;;;;;;;13.82;6.93;;;;;;;;;;5086348;28;20069;-67
2023/09/22 04:33:20;;;;;;;15.93;7.30;;;;;;;;;;5079762;28;20048;-67
2023/09/22 04:35:50;;;;;;;16.98;6.97;;;;;;;;;;5073812;28;20052;-67
2023/09/22 04:38:18;;;;;;;14.63;7.03;;;;;;;;;;5082778;28;20127;-67
2023/09/22 04:40:47;;;;;;;15.73;7.30;;;;;;;;;;5083926;28;20094;-67
2023/09/22 04:43:14;;;;;;;18.42;7.53;;;;;;;;;;5085109;28;20040;-67
2023/09/22 04:45:43;;;;;;;12.43;6.72;;;;;;;;;;5069530;28;20049;-67
2023/09/22 04:48:13;;;;;;;17.05;7.00;;;;;;;;;;5072957;28;20052;-67
2023/09/22 04:50:40;;;;;;;12.57;6.63;;;;;;;;;;5071585;28;20051;-67
2023/09/22 04:53:08;;;;;;;11.50;6.18;;;;;;;;;;5090011;28;20075;-67
2023/09/22 04:55:35;;;;;;;13.85;6.63;;;;;;;;;;5091378;28;20460;-67
2023/09/22 04:58:03;;;;;;;14.07;6.57;;;;;;;;;;5088093;28;20142;-67
2023/09/22 05:00:33;;;;;;;10.88;6.00;;;;;;;;;;5077590;28;20075;-67
2023/09/22 05:03:01;;;;;;;12.50;5.80;;;;;;;;;;5090654;28;20066;-67
2023/09/22 05:05:30;;;;;;;15.18;5.38;;;;;;;;;;5088735;28;20388;-67
2023/09/22 05:07:58;;;;;;;11.13;5.32;;;;;;;;;;5092305;28;20349;-67
2023/09/22 05:10:25;;;;;;;10.50;5.75;;;;;;;;;;5085879;28;20043;-67
2023/09/22 05:12:53;;;;;;;13.38;5.78;;;;;;;;;;5086949;28;20052;-67
2023/09/22 05:15:21;;;;;;;9.52;5.63;;;;;;;;;;5090394;28;20531;-67
2023/09/22 05:17:48;;;;;;;12.60;6.18;;;;;;;;;;5074109;28;20060;-67
2023/09/22 05:20:17;;;;;;;14.50;6.15;;;;;;;;;;5083029;28;20048;-67
2023/09/22 05:22:45;;;;;;;10.27;5.28;;;;;;;;;;5086277;28;20048;-67
2023/09/22 05:25:14;;;;;;;12.68;5.80;;;;;;;;;;5095848;28;20588;-67
2023/09/22 05:27:42;;;;;;;11.82;6.47;;;;;;;;;;5086442;28;20079;-67
2023/09/22 05:30:10;;;;;;;13.60;6.20;;;;;;;;;;5090272;28;20044;-67
2023/09/22 05:32:38;;;;;;;12.45;6.05;;;;;;;;;;5091596;28;20051;-67
2023/09/22 05:35:06;;;;;;;12.85;6.40;;;;;;;;;;5089803;28;20079;-67
2023/09/22 05:37:34;;;;;;;13.98;6.80;;;;;;;;;;5091792;28;20048;-66
2023/09/22 05:40:05;;;;;;;13.70;7.30;;;;;;;;;;5082237;28;20060;-66
2023/09/22 05:42:33;;;;;;;14.50;6.93;;;;;;;;;;5086204;28;20487;-67
2023/09/22 05:45:00;;;;;;;16.85;7.65;;;;;;;;;;5078137;28;20088;-66
2023/09/22 05:47:29;;;;;;;14.05;7.22;;;;;;;;;;5083134;28;20447;-67
2023/09/22 05:49:56;;;;;;;16.45;8.02;;;;;;;;;;5086701;28;20048;-67
2023/09/22 05:52:24;;;;;;;19.67;8.55;;;;;;;;;;5085942;28;20051;-67
2023/09/22 05:54:51;;;;;;;19.83;8.40;;;;;;;;;;5071522;28;20384;-67
2023/09/22 05:57:19;;;;;;;20.48;8.65;;;;;;;;;;5086481;28;20051;-67
2023/09/22 05:59:47;;;;;;;21.80;8.55;;;;;;;;;;5090381;28;20060;-67
2023/09/22 06:02:14;;;;;;;25.52;8.90;;;;;;;;;;5084870;28;20074;-67
2023/09/22 06:04:41;;;;;;;25.95;9.25;;;;;;;;;;5085976;28;20514;-67
2023/09/22 06:07:12;;;;;;;21.95;9.45;;;;;;;;;;5090797;28;20062;-67
2023/09/22 06:09:40;;;;;;;30.00;10.63;;;;;;;;;;5090483;28;20057;-67
2023/09/22 06:12:07;;;;;;;24.90;9.55;;;;;;;;;;5082146;28;20052;-66
2023/09/22 06:14:36;;;;;;;24.45;11.23;;;;;;;;;;5082693;28;20052;-66
2023/09/22 06:17:03;;;;;;;23.98;9.77;;;;;;;;;;5068832;28;20048;-66
2023/09/22 06:19:31;;;;;;;25.10;10.55;;;;;;;;;;5084500;28;20047;-67
2023/09/22 06:21:59;;;;;;;24.15;11.13;;;;;;;;;;5086247;28;20518;-66
2023/09/22 06:24:27;;;;;;;23.05;9.93;;;;;;;;;;5085203;28;20080;-67
2023/09/22 06:26:54;;;;;;;23.67;10.85;;;;;;;;;;5091948;28;20048;-67
2023/09/22 06:29:22;;;;;;;22.70;10.30;;;;;;;;;;5088486;28;20052;-66
2023/09/22 06:31:50;;;;;;;22.00;10.07;;;;;;;;;;5086818;28;20052;-67
2023/09/22 06:34:19;;;;;;;20.10;10.50;;;;;;;;;;5086705;28;20040;-67
2023/09/22 06:36:47;;;;;;;25.98;10.52;;;;;;;;;;5080984;28;20538;-66
2023/09/22 06:39:14;;;;;;;23.55;9.68;;;;;;;;;;5082132;28;20048;-67
2023/09/22 06:41:42;;;;;;;25.17;11.32;;;;;;;;;;5067843;28;20083;-67
2023/09/22 06:44:09;;;;;;;27.60;12.10;;;;;;;;;;5085713;28;20050;-67
2023/09/22 06:46:36;;;;;;;26.88;11.25;;;;;;;;;;5085138;28;20506;-66
2023/09/22 06:49:07;;;;;;;26.90;11.32;;;;;;;;;;5085570;28;20133;-67
2023/09/22 06:51:36;;;;;;;24.55;11.00;;;;;;;;;;5082738;28;20041;-67
2023/09/22 06:54:04;;;;;;;31.58;12.70;;;;;;;;;;5087589;28;20052;-67
2023/09/22 06:56:31;;;;;;;30.52;13.20;;;;;;;;;;5087635;28;20051;-67
2023/09/22 06:58:59;;;;;;;32.75;12.77;;;;;;;;;;5083995;28;20064;-67
2023/09/22 07:01:26;;;;;;;33.80;13.27;;;;;;;;;;5052790;28;1134012;-67
2023/09/22 07:03:53;;;;;;;30.30;13.02;;;;;;;;;;5083120;28;20059;-67
2023/09/22 07:06:22;;;;;;;32.55;13.60;;;;;;;;;;5085577;28;20052;-67
2023/09/22 07:08:49;;;;;;;29.70;13.60;;;;;;;;;;5079738;28;20051;-67
2023/09/22 07:11:18;;;;;;;29.42;12.50;;;;;;;;;;5087717;28;20557;-67
2023/09/22 07:13:46;;;;;;;38.03;13.80;;;;;;;;;;5076001;28;20111;-67
2023/09/22 07:16:13;;;;;;;30.10;12.77;;;;;;;;;;5089041;28;20060;-67
2023/09/22 07:18:40;;;;;;;28.65;13.18;;;;;;;;;;5084293;28;20380;-67
2023/09/22 07:21:08;;;;;;;30.15;14.20;;;;;;;;;;5085495;28;20047;-67
2023/09/22 07:23:37;;;;;;;29.48;12.90;;;;;;;;;;5083711;28;20500;-67
2023/09/22 07:26:05;;;;;;;31.92;13.32;;;;;;;;;;5087771;28;20044;-67
2023/09/22 07:28:34;;;;;;;30.35;13.00;;;;;;;;;;5083484;28;20048;-67
2023/09/22 07:31:01;;;;;;;30.70;13.70;;;;;;;;;;5089859;28;20052;-68
2023/09/22 07:33:32;;;;;;;29.20;13.07;;;;;;;;;;5089731;28;20055;-66
2023/09/22 07:35:59;;;;;;;34.13;13.07;;;;;;;;;;5085379;28;20047;-68
2023/09/22 07:38:28;;;;;;;30.48;13.45;;;;;;;;;;5089559;28;20048;-67
2023/09/22 07:40:58;;;;;;;24.02;12.30;;;;;;;;;;5085833;28;20513;-67
2023/09/22 07:43:29;;;;;;;29.02;12.68;;;;;;;;;;5085086;28;20503;-67
2023/09/22 07:45:56;;;;;;;25.92;11.30;;;;;;;;;;5081253;28;20527;-67
2023/09/22 07:48:24;;;;;;;25.00;11.48;;;;;;;;;;5084556;28;20051;-67
2023/09/22 07:50:52;;;;;;;24.15;11.48;;;;;;;;;;5089581;28;20051;-67
2023/09/22 07:53:20;;;;;;;20.40;9.98;;;;;;;;;;5073381;28;20403;-67
2023/09/22 07:55:47;;;;;;;18.63;10.27;;;;;;;;;;5068851;28;20048;-68
2023/09/22 07:58:16;;;;;;;13.95;8.73;;;;;;;;;;5084030;28;20407;-67
2023/09/22 08:00:46;;;;;;;17.35;8.40;;;;;;;;;;5088833;28;20522;-67
2023/09/22 08:03:14;;;;;;;13.48;7.20;;;;;;;;;;5084153;28;20052;-67
2023/09/22 08:05:41;;;;;;;9.63;6.68;;;;;;;;;;5080700;28;20047;-67
2023/09/22 08:08:10;;;;;;;11.43;6.43;;;;;;;;;;5071372;28;20052;-67
2023/09/22 08:10:38;;;;;;;9.65;5.55;;;;;;;;;;5083541;28;20044;-66
2023/09/22 08:13:07;;;;;;;13.13;5.70;;;;;;;;;;5087186;28;20483;-67
2023/09/22 08:15:37;;;;;;;9.30;4.38;;;;;;;;;;5089541;28;20040;-67
2023/09/22 08:18:05;;;;;;;7.30;3.90;;;;;;;;;;5084582;28;20131;-67
2023/09/22 08:20:33;;;;;;;8.18;3.67;;;;;;;;;;5081767;28;20053;-67
2023/09/22 08:23:00;;;;;;;5.00;3.20;;;;;;;;;;5089342;28;20121;-66
2023/09/22 08:25:27;;;;;;;5.28;3.10;;;;;;;;;;5092154;28;20046;-67
2023/09/22 08:27:56;;;;;;;4.55;2.80;;;;;;;;;;5087175;28;20117;-67
2023/09/22 08:30:24;;;;;;;5.63;2.63;;;;;;;;;;5088630;28;20123;-67
2023/09/22 08:32:53;;;;;;;8.00;2.20;;;;;;;;;;5069323;28;20056;-67
2023/09/22 08:35:20;;;;;;;6.53;2.40;;;;;;;;;;5084930;28;20050;-67
2023/09/22 08:37:49;;;;;;;8.55;2.55;;;;;;;;;;5082959;28;20434;-67
2023/09/22 08:40:17;;;;;;;4.28;2.25;;;;;;;;;;5081812;28;20060;-67
2023/09/22 08:42:45;;;;;;;3.35;2.10;;;;;;;;;;5069808;28;20481;-67
2023/09/22 08:45:14;;;;;;;3.42;1.90;;;;;;;;;;5065556;28;20526;-67
2023/09/22 08:47:42;;;;;;;5.70;2.35;;;;;;;;;;5085194;28;20582;-67
2023/09/22 08:50:12;;;;;;;6.45;2.25;;;;;;;;;;5073109;28;20058;-67
2023/09/22 08:52:43;;;;;;;3.00;1.88;;;;;;;;;;5086328;28;20480;-68
2023/09/22 08:55:11;;;;;;;6.45;2.50;;;;;;;;;;5086465;28;20487;-67
2023/09/22 08:57:40;;;;;;;4.50;2.05;;;;;;;;;;5084626;28;20072;-67
2023/09/22 09:00:12;;;;;;;3.38;2.25;;;;;;;;;;5084799;28;20079;-67
2023/09/22 09:02:40;;;;;;;5.65;2.40;;;;;;;;;;5086774;28;20050;-67
2023/09/22 09:05:25;;;;;;;6.18;3.10;;;;;;;;;;5086735;28;20519;-67
2023/09/22 09:07:54;;;;;;;5.82;3.28;;;;;;;;;;5082371;28;20049;-67
2023/09/22 09:10:28;;;;;;;4.05;2.75;;;;;;;;;;5088306;28;20122;-67
2023/09/22 09:12:55;;;;;;;5.65;2.78;;;;;;;;;;5083735;28;20127;-68
2023/09/22 09:15:23;;;;;;;4.75;2.13;;;;;;;;;;5068490;28;20044;-67
2023/09/22 09:18:03;;;;;;;3.05;1.85;;;;;;;;;;5086525;28;20438;-67
2023/09/22 09:20:30;;;;;;;2.70;1.60;;;;;;;;;;5084490;28;20048;-67
2023/09/22 09:23:00;;;;;;;2.88;1.73;;;;;;;;;;5083311;28;20056;-67
2023/09/22 09:25:27;;;;;;;3.55;1.88;;;;;;;;;;5087428;28;20070;-67
2023/09/22 09:28:02;;;;;;;3.10;1.77;;;;;;;;;;5089080;28;20063;-67
2023/09/22 09:30:31;;;;;;;3.72;2.15;;;;;;;;;;5081823;28;20501;-67
2023/09/22 09:33:09;;;;;;;6.30;2.30;;;;;;;;;;5093597;28;20054;-68
2023/09/22 09:35:41;;;;;;;3.17;1.80;;;;;;;;;;5087152;28;20051;-67
2023/09/22 09:38:09;;;;;;;2.28;1.58;;;;;;;;;;5090882;28;20113;-68
2023/09/22 09:40:41;;;;;;;2.60;1.60;;;;;;;;;;5085793;28;20048;-68
2023/09/22 09:43:11;;;;;;;2.83;1.50;;;;;;;;;;5079406;28;20085;-68
2023/09/22 09:45:42;;;;;;;6.85;1.80;;;;;;;;;;5091226;28;20044;-67
2023/09/22 09:48:14;;;;;;;2.17;1.45;;;;;;;;;;5083088;28;20072;-68
2023/09/22 09:50:42;;;;;;;3.50;1.55;;;;;;;;;;5089263;28;20056;-68
2023/09/22 09:53:15;;;;;;;3.97;1.17;;;;;;;;;;5085008;28;20044;-68
2023/09/22 09:55:43;;;;;;;1.75;1.10;;;;;;;;;;5087811;28;20109;-67
2023/09/22 09:58:12;;;;;;;3.05;1.20;;;;;;;;;;5090248;28;20499;-68
2023/09/22 10:00:42;;;;;;;4.65;1.27;;;;;;;;;;5090990;28;20040;-69
2023/09/22 10:03:11;;;;;;;2.15;1.05;;;;;;;;;;5080486;28;20052;-68
2023/09/22 10:05:38;;;;;;;1.70;0.68;;;;;;;;;;5085901;28;20045;-68
2023/09/22 10:08:07;;;;;;;1.80;1.00;;;;;;;;;;5091474;28;20132;-68
2023/09/22 10:10:38;;;;;;;2.30;0.85;;;;;;;;;;5084672;28;20133;-68
2023/09/22 10:13:07;;;;;;;2.38;1.10;;;;;;;;;;5089908;28;20051;-67
2023/09/22 10:15:53;;;;;;;2.58;0.80;;;;;;;;;;5092989;28;20147;-68
2023/09/22 10:18:21;;;;;;;3.20;1.20;;;;;;;;;;5089248;28;20131;-68
2023/09/22 10:20:48;;;;;;;1.10;0.80;;;;;;;;;;5090180;28;20048;-68
2023/09/22 10:23:16;;;;;;;2.58;1.30;;;;;;;;;;5085092;28;20043;-69
2023/09/22 10:25:45;;;;;;;3.15;1.10;;;;;;;;;;5094699;28;20057;-68
2023/09/22 10:28:28;;;;;;;2.03;0.98;;;;;;;;;;5088267;28;20492;-69
2023/09/22 10:31:05;;;;;;;2.58;1.00;;;;;;;;;;5090270;28;20097;-68
2023/09/22 10:33:32;;;;;;;1.38;0.88;;;;;;;;;;5087679;28;20048;-68
2023/09/22 10:36:01;;;;;;;5.00;1.10;;;;;;;;;;5088433;28;20079;-69
2023/09/22 10:38:28;;;;;;;3.33;0.90;;;;;;;;;;5084612;28;20079;-68
2023/09/22 10:41:06;;;;;;;3.00;0.98;;;;;;;;;;5089738;28;20059;-69
2023/09/22 10:43:34;;;;;;;2.00;1.00;;;;;;;;;;5070724;28;20105;-70
2023/09/22 10:46:02;;;;;;;4.25;1.13;;;;;;;;;;5079802;28;20044;-68
2023/09/22 10:48:34;;;;;;;2.50;0.90;;;;;;;;;;5079923;28;20051;-69
2023/09/22 10:51:06;;;;;;;2.60;1.02;;;;;;;;;;5086596;28;20056;-69
2023/09/22 10:53:38;;;;;;;3.38;1.13;;;;;;;;;;5069292;28;20047;-69
2023/09/22 10:56:07;;;;;;;1.83;1.00;;;;;;;;;;5089432;28;20052;-68
2023/09/22 10:58:34;;;;;;;4.95;1.40;;;;;;;;;;5079282;28;20052;-68
2023/09/22 11:01:04;;;;;;;1.88;1.20;;;;;;;;;;5086951;28;20172;-68
2023/09/22 11:03:32;;;;;;;2.55;1.40;;;;;;;;;;5087475;28;20044;-68
2023/09/22 11:06:02;;;;;;;3.38;1.20;;;;;;;;;;5084338;28;20048;-68
2023/09/22 11:08:30;;;;;;;1.95;1.33;;;;;;;;;;5082709;28;20137;-68
2023/09/22 11:10:57;;;;;;;1.80;1.08;;;;;;;;;;5081171;28;20052;-67
2023/09/22 11:13:26;;;;;;;1.73;1.00;;;;;;;;;;5083634;28;20098;-66
2023/09/22 11:15:56;;;;;;;2.13;0.80;;;;;;;;;;5082336;28;20059;-66
2023/09/22 11:18:24;;;;;;;2.78;0.73;;;;;;;;;;5088262;28;20112;-66
2023/09/22 11:20:55;;;;;;;1.00;0.70;;;;;;;;;;5085061;28;20048;-66
2023/09/22 11:23:24;;;;;;;1.60;0.77;;;;;;;;;;5088724;28;20103;-65
2023/09/22 11:25:55;;;;;;;3.17;0.82;;;;;;;;;;5086733;28;20054;-66
2023/09/22 11:28:22;;;;;;;1.30;0.75;;;;;;;;;;5087286;28;20070;-65
2023/09/22 11:30:51;;;;;;;5.15;1.08;;;;;;;;;;5085760;28;20513;-65
2023/09/22 11:33:19;;;;;;;2.55;1.00;;;;;;;;;;5088749;28;20494;-65
2023/09/22 11:35:46;;;;;;;2.35;1.10;;;;;;;;;;5086204;28;20048;-65
2023/09/22 11:38:26;;;;;;;2.55;1.08;;;;;;;;;;5076317;28;20044;-65
2023/09/22 11:41:02;;;;;;;1.67;1.00;;;;;;;;;;5079824;28;20052;-66
2023/09/22 11:43:29;;;;;;;3.80;0.90;;;;;;;;;;5083722;28;20066;-65
2023/09/22 11:46:07;;;;;;;0.80;0.70;;;;;;;;;;5086815;28;20060;-65
2023/09/22 11:48:50;;;;;;;1.65;0.77;;;;;;;;;;5081616;28;20050;-66
2023/09/22 11:51:17;;;;;;;1.83;0.80;;;;;;;;;;5078141;28;20484;-64
2023/09/22 11:53:45;;;;;;;1.40;0.73;;;;;;;;;;5086352;28;20055;-65
2023/09/22 11:56:12;;;;;;;1.35;0.80;;;;;;;;;;5078595;28;20048;-65
2023/09/22 11:58:39;;;;;;;2.30;0.90;;;;;;;;;;5087519;28;20048;-65
2023/09/22 12:01:09;;;;;;;3.83;0.88;;;;;;;;;;5086514;28;20075;-65
2023/09/22 12:03:36;;;;;;;1.42;0.90;;;;;;;;;;5088301;28;20052;-65
2023/09/22 12:06:04;;;;;;;1.48;0.90;;;;;;;;;;5084112;28;20074;-64
2023/09/22 12:08:31;;;;;;;0.80;0.60;;;;;;;;;;5079733;28;20479;-64
2023/09/22 12:11:00;;;;;;;1.80;0.70;;;;;;;;;;5081850;28;20177;-64
2023/09/22 12:13:27;;;;;;;0.88;0.68;;;;;;;;;;5086114;28;20051;-65
2023/09/22 12:15:55;;;;;;;1.65;0.68;;;;;;;;;;5083425;28;20499;-66
2023/09/22 12:18:24;;;;;;;1.58;0.90;;;;;;;;;;5084034;28;20112;-66
2023/09/22 12:20:51;;;;;;;1.88;0.60;;;;;;;;;;5086818;28;20059;-66
2023/09/22 12:23:18;;;;;;;1.60;0.70;;;;;;;;;;5089966;28;20529;-66
2023/09/22 12:25:45;;;;;;;2.55;0.70;;;;;;;;;;5086869;28;20044;-65
2023/09/22 12:28:12;;;;;;;3.38;0.70;;;;;;;;;;5083788;28;20044;-66
2023/09/22 12:30:40;;;;;;;2.35;0.60;;;;;;;;;;5087152;28;20055;-65
2023/09/22 12:33:07;;;;;;;1.33;0.60;;;;;;;;;;5089378;28;20052;-66
2023/09/22 12:35:37;;;;;;;1.48;0.50;;;;;;;;;;5086410;28;20047;-66
2023/09/22 12:38:05;;;;;;;2.20;0.70;;;;;;;;;;5087052;28;20052;-66
2023/09/22 12:40:32;;;;;;;0.70;0.50;;;;;;;;;;5080546;28;20097;-65
2023/09/22 12:42:59;;;;;;;2.90;0.40;;;;;;;;;;5082294;28;20511;-65
2023/09/22 12:45:27;;;;;;;2.45;0.55;;;;;;;;;;5080955;28;20047;-65
2023/09/22 12:47:54;;;;;;;1.63;0.50;;;;;;;;;;5083039;28;20543;-66
2023/09/22 12:50:21;;;;;;;0.52;0.30;;;;;;;;;;5088468;28;20123;-66
2023/09/22 12:52:50;;;;;;;1.48;0.40;;;;;;;;;;5085067;28;20052;-66
2023/09/22 12:55:17;;;;;;;1.27;0.30;;;;;;;;;;5086661;28;20055;-66
2023/09/22 12:57:44;;;;;;;1.73;0.40;;;;;;;;;;5086263;28;20510;-66
2023/09/22 13:00:15;;;;;;;0.63;0.30;;;;;;;;;;5090394;28;20047;-66
2023/09/22 13:02:42;;;;;;;0.43;0.30;;;;;;;;;;5060462;28;20060;-67
2023/09/22 13:05:11;;;;;;;2.33;0.47;;;;;;;;;;5084570;28;20159;-67
2023/09/22 13:07:39;;;;;;;2.13;0.30;;;;;;;;;;5092023;28;20035;-66
2023/09/22 13:10:08;;;;;;;1.40;0.35;;;;;;;;;;5087503;28;20525;-66
2023/09/22 13:12:37;;;;;;;1.48;0.45;;;;;;;;;;5083446;28;20044;-66
2023/09/22 13:15:04;;;;;;;2.47;0.77;;;;;;;;;;5087814;28;20414;-66
2023/09/22 13:17:32;;;;;;;0.60;0.30;;;;;;;;;;5085265;28;20484;-66
2023/09/22 13:19:59;;;;;;;1.38;0.40;;;;;;;;;;5089241;28;20056;-66
2023/09/22 13:22:26;;;;;;;1.40;0.40;;;;;;;;;;5086748;28;20054;-66
2023/09/22 13:24:53;;;;;;;0.98;0.50;;;;;;;;;;5091019;28;20048;-66
2023/09/22 13:27:22;;;;;;;1.95;0.70;;;;;;;;;;5096653;28;20114;-66
2023/09/22 13:29:49;;;;;;;1.30;0.60;;;;;;;;;;5084431;28;20539;-65
2023/09/22 13:32:16;;;;;;;0.30;0.30;;;;;;;;;;5096472;28;20051;-66
2023/09/22 13:34:44;;;;;;;1.73;0.50;;;;;;;;;;5090331;28;20044;-66
2023/09/22 13:37:12;;;;;;;0.52;0.35;;;;;;;;;;5091860;28;20475;-66
2023/09/22 13:39:39;;;;;;;0.75;0.40;;;;;;;;;;5102852;28;20043;-66
2023/09/22 13:42:07;;;;;;;0.57;0.40;;;;;;;;;;5086617;28;20412;-66
2023/09/22 13:44:35;;;;;;;1.00;0.40;;;;;;;;;;5093240;28;20044;-65
2023/09/22 13:47:02;;;;;;;1.15;0.40;;;;;;;;;;5086947;28;20541;-65
2023/09/22 13:49:31;;;;;;;1.17;0.60;;;;;;;;;;5096670;28;20338;-65
2023/09/22 13:51:58;;;;;;;1.50;0.40;;;;;;;;;;5084401;28;20553;-65
2023/09/22 13:54:25;;;;;;;2.75;0.80;;;;;;;;;;5085493;28;20036;-65
2023/09/22 13:56:52;;;;;;;1.85;0.60;;;;;;;;;;5096826;28;20055;-65
2023/09/22 13:59:20;;;;;;;2.97;0.60;;;;;;;;;;5092715;28;20392;-65
2023/09/22 14:01:48;;;;;;;0.95;0.60;;;;;;;;;;5066568;28;20055;-65
2023/09/22 14:04:15;;;;;;;0.90;0.30;;;;;;;;;;5062837;28;20052;-65
2023/09/22 14:06:42;;;;;;;2.00;0.88;;;;;;;;;;5069848;28;20045;-65
2023/09/22 14:09:11;;;;;;;1.58;0.68;;;;;;;;;;5064807;28;20511;-65
2023/09/22 14:11:38;;;;;;;3.50;0.70;;;;;;;;;;5068066;28;20124;-65
2023/09/22 14:14:05;;;;;;;1.25;0.60;;;;;;;;;;5065997;28;20567;-65
2023/09/22 14:16:32;;;;;;;0.70;0.40;;;;;;;;;;5068336;28;20047;-65
2023/09/22 14:19:01;;;;;;;0.65;0.45;;;;;;;;;;5068572;28;20045;-66
2023/09/22 14:21:29;;;;;;;2.63;0.50;;;;;;;;;;5064081;28;20128;-65
2023/09/22 14:23:56;;;;;;;2.97;0.60;;;;;;;;;;5064071;28;20057;-66
2023/09/22 14:26:23;;;;;;;0.88;0.38;;;;;;;;;;5067406;28;20064;-66
2023/09/22 14:28:50;;;;;;;0.28;0.28;;;;;;;;;;5067779;28;20055;-65
2023/09/22 14:31:18;;;;;;;0.65;0.30;;;;;;;;;;5066653;28;20519;-66
2023/09/22 14:33:45;;;;;;;1.27;0.50;;;;;;;;;;5060767;28;20542;-66
2023/09/22 14:36:14;;;;;;;0.82;0.30;;;;;;;;;;5065338;28;20055;-66
2023/09/22 14:38:41;;;;;;;1.08;0.40;;;;;;;;;;5068914;28;20408;-66
2023/09/22 14:41:09;;;;;;;1.20;0.40;;;;;;;;;;5071658;28;20040;-66
2023/09/22 14:43:36;;;;;;;1.90;0.50;;;;;;;;;;5062596;28;20040;-66